Time;durP1;ratioP1;P1;durP2;ratioP2;P2;SDS_P1;SDS_P2;PMS_P1;PMS_P2;Temp;Humidity;BMP_temperature;BMP_pressure;BME280_temperature;BME280_humidity;BME280_pressure;Samples;Min_cycle;Max_cycle;Signal;HPM_P1;HPM_P2
2023/03/05 00:01:48;;;;;;;11.80;4.60;;;;;;;-5.42;71.20;100025.13;107131;1257;89412;-55
2023/03/05 00:04:29;;;;;;;9.20;4.00;;;;;;;-5.47;71.16;100022.43;107131;1257;94835;-60
2023/03/05 00:07:13;;;;;;;13.90;5.40;;;;;;;-5.50;71.24;100020.88;107136;1258;80856;-60
2023/03/05 00:09:49;;;;;;;10.60;4.80;;;;;;;-5.53;71.42;100023.58;107202;1257;80004;-61
2023/03/05 00:12:31;;;;;;;15.90;6.70;;;;;;;-5.54;71.38;100019.23;107250;1257;97434;-61
2023/03/05 00:15:08;;;;;;;12.80;5.40;;;;;;;-5.53;71.77;100017.77;107181;1257;86017;-55
2023/03/05 00:17:49;;;;;;;12.30;5.50;;;;;;;-5.49;71.99;100015.23;107049;1259;93781;-56
2023/03/05 00:20:27;;;;;;;13.60;5.40;;;;;;;-5.44;71.84;100012.25;107192;1257;79593;-61
2023/03/05 00:23:07;;;;;;;11.30;5.80;;;;;;;-5.42;71.90;100011.05;107243;1257;81487;-61
2023/03/05 00:25:47;;;;;;;12.60;5.50;;;;;;;-5.38;72.08;100011.17;107177;1257;99209;-57
2023/03/05 00:28:24;;;;;;;15.10;5.70;;;;;;;-5.39;72.18;100009.11;107145;1257;88847;-57
2023/03/05 00:31:03;;;;;;;15.40;5.60;;;;;;;-5.43;72.26;100009.24;107142;1257;94052;-60
2023/03/05 00:33:45;;;;;;;11.90;5.40;;;;;;;-5.48;72.22;100005.48;107168;1257;80020;-60
2023/03/05 00:36:28;;;;;;;13.20;5.60;;;;;;;-5.49;72.22;100000.28;107160;1257;82683;-57
2023/03/05 00:39:06;;;;;;;;;;;;;;;-5.48;72.21;99995.00;107132;1257;96345;-58
2023/03/05 00:41:51;;;;;;;14.70;5.40;;;;;;;-5.50;72.32;99995.98;107148;1260;88599;-60
2023/03/05 00:44:37;;;;;;;13.30;5.10;;;;;;;-5.54;72.39;99988.20;107170;1256;92215;-57
2023/03/05 00:47:19;;;;;;;15.10;7.70;;;;;;;-5.56;72.47;99986.91;107124;1257;82425;-56
2023/03/05 00:49:58;;;;;;;18.70;7.50;;;;;;;-5.59;72.69;99983.77;107184;1257;82069;-62
2023/03/05 00:52:33;;;;;;;18.70;8.50;;;;;;;-5.57;73.07;99976.65;107231;1257;97381;-62
2023/03/05 00:55:10;;;;;;;14.80;8.00;;;;;;;-5.54;73.04;99983.30;107202;1257;88610;-56
2023/03/05 00:57:45;;;;;;;19.30;8.70;;;;;;;-5.50;73.11;99975.16;107152;1257;94197;-56
2023/03/05 01:00:23;;;;;;;25.70;10.60;;;;;;;-5.44;73.22;99969.27;107181;1257;78644;-59
2023/03/05 01:03:01;;;;;;;25.30;9.20;;;;;;;-5.41;73.34;99967.52;107176;1257;81443;-60
2023/03/05 01:05:40;;;;;;;20.60;8.60;;;;;;;-5.38;73.48;99963.63;107238;1257;98389;-61
2023/03/05 01:08:18;;;;;;;19.90;8.80;;;;;;;-5.35;73.57;99959.58;107255;1257;87772;-61
2023/03/05 01:11:00;;;;;;;22.00;9.90;;;;;;;-5.38;73.74;99956.04;107281;1257;93980;-62
2023/03/05 01:13:47;;;;;;;27.40;10.70;;;;;;;-5.40;73.80;99950.92;107248;1257;79852;-62
2023/03/05 01:16:30;;;;;;;22.90;9.20;;;;;;;-5.44;73.95;99950.32;107156;1257;83585;-56
2023/03/05 01:19:10;;;;;;;23.70;9.90;;;;;;;-5.46;73.75;99945.52;107177;1257;97152;-57
2023/03/05 01:21:50;;;;;;;23.20;9.10;;;;;;;-5.45;74.23;99943.54;107197;1257;88709;-57
2023/03/05 01:24:27;;;;;;;21.00;8.60;;;;;;;-5.43;74.21;99945.02;107221;1257;95309;-62
2023/03/05 01:27:03;;;;;;;27.60;10.50;;;;;;;-5.43;74.29;99942.04;107205;1257;82569;-62
2023/03/05 01:29:40;;;;;;;25.20;10.10;;;;;;;-5.45;74.37;99947.77;107190;1257;84803;-62
2023/03/05 01:32:18;;;;;;;25.40;9.60;;;;;;;-5.43;74.67;99942.75;107299;1257;98869;-62
2023/03/05 01:35:00;;;;;;;25.80;9.40;;;;;;;-5.42;74.61;99936.36;107240;1257;88242;-56
2023/03/05 01:37:41;;;;;;;25.70;10.40;;;;;;;-5.41;74.85;99931.33;107183;1258;95217;-57
2023/03/05 01:40:24;;;;;;;21.40;8.60;;;;;;;-5.39;74.77;99933.89;107200;1257;78128;-58
2023/03/05 01:43:24;;;;;;;22.70;8.60;;;;;;;-5.38;75.12;99930.44;107217;1257;83279;-58
2023/03/05 01:46:33;;;;;;;22.70;8.60;;;;;;;-5.38;75.09;99924.86;107213;1257;96095;-58
2023/03/05 01:49:16;;;;;;;22.30;10.10;;;;;;;-5.38;75.17;99928.39;107240;1258;87629;-60
2023/03/05 01:52:16;;;;;;;24.80;10.00;;;;;;;-5.40;75.14;99924.27;107184;1257;94446;-61
2023/03/05 01:55:01;;;;;;;20.60;8.10;;;;;;;-5.41;75.25;99921.90;107208;1257;80653;-56
2023/03/05 01:57:46;;;;;;;20.80;9.10;;;;;;;-5.39;75.49;99919.84;107182;1257;82164;-56
2023/03/05 02:00:28;;;;;;;20.60;8.90;;;;;;;-5.38;75.65;99917.45;107225;1257;97155;-62
2023/03/05 02:03:11;;;;;;;21.00;8.50;;;;;;;-5.34;75.56;99916.73;107306;1257;89129;-62
2023/03/05 02:05:52;;;;;;;23.10;8.60;;;;;;;-5.30;75.66;99914.02;107190;1258;94281;-60
2023/03/05 02:08:31;;;;;;;22.80;8.90;;;;;;;-5.29;75.96;99911.65;107204;1257;80183;-60
2023/03/05 02:11:09;;;;;;;24.50;9.90;;;;;;;-5.26;75.98;99913.88;107101;1257;82426;-56
2023/03/05 02:13:43;;;;;;;25.20;9.80;;;;;;;-5.25;76.04;99907.49;107216;1258;97020;-57
2023/03/05 02:16:34;;;;;;;23.60;9.60;;;;;;;-5.24;76.50;99908.48;107296;1257;86410;-62
2023/03/05 02:19:15;;;;;;;20.30;8.80;;;;;;;-5.25;76.62;99903.14;107270;1260;94496;-60
2023/03/05 02:21:54;;;;;;;22.60;9.60;;;;;;;-5.28;76.54;99905.57;107200;1257;82464;-60
2023/03/05 02:24:48;;;;;;;20.80;9.60;;;;;;;-5.26;76.81;99896.86;107212;1257;82781;-62
2023/03/05 02:27:33;;;;;;;24.70;11.90;;;;;;;-5.23;76.89;99900.71;107355;1257;98584;-62
2023/03/05 02:30:11;;;;;;;21.50;10.00;;;;;;;-5.22;76.81;99899.38;107251;1259;88104;-58
2023/03/05 02:32:51;;;;;;;24.00;10.00;;;;;;;-5.21;77.06;99895.13;107179;1257;94796;-58
2023/03/05 02:35:30;;;;;;;22.30;9.70;;;;;;;-5.21;76.70;99894.42;107177;1257;79491;-55
2023/03/05 02:38:12;;;;;;;24.50;10.00;;;;;;;-5.18;76.88;99889.15;107187;1257;82058;-55
2023/03/05 02:40:54;;;;;;;28.20;10.00;;;;;;;-5.14;77.32;99888.16;107238;1257;97878;-55
2023/03/05 02:43:29;;;;;;;27.30;10.80;;;;;;;-5.13;77.21;99888.06;107184;1259;87084;-55
2023/03/05 02:46:08;;;;;;;22.40;9.90;;;;;;;-5.16;77.11;99884.95;107143;1259;95314;-56
2023/03/05 02:48:48;;;;;;;20.90;9.70;;;;;;;-5.19;77.07;99885.16;107212;1257;82185;-56
2023/03/05 02:51:31;;;;;;;21.00;9.60;;;;;;;-5.23;77.30;99881.79;107214;1259;82923;-57
2023/03/05 02:54:18;;;;;;;26.70;11.50;;;;;;;-5.26;77.31;99878.61;107177;1257;98593;-58
2023/03/05 02:56:56;;;;;;;23.20;9.90;;;;;;;-5.26;77.50;99876.67;107199;1257;88508;-57
2023/03/05 02:59:38;;;;;;;23.30;9.50;;;;;;;-5.25;77.64;99875.91;107209;1258;93165;-61
2023/03/05 03:02:20;;;;;;;24.70;9.90;;;;;;;-5.22;77.74;99873.97;107296;1257;81634;-62
2023/03/05 03:05:03;;;;;;;;;;;;;;;-5.19;77.86;99871.81;107338;1258;81604;-59
2023/03/05 03:07:44;;;;;;;23.90;9.60;;;;;;;-5.17;77.80;99870.60;107172;1257;98119;-60
2023/03/05 03:10:25;;;;;;;21.70;9.50;;;;;;;-5.12;77.77;99872.20;107261;1259;89134;-55
2023/03/05 03:13:05;;;;;;;24.60;11.80;;;;;;;-5.01;77.85;99871.30;107185;1257;94260;-56
2023/03/05 03:15:43;;;;;;;20.40;10.20;;;;;;;-4.95;78.07;99872.10;107141;1257;79663;-56
2023/03/05 03:18:26;;;;;;;28.20;10.30;;;;;;;-4.92;78.10;99871.37;107212;1259;82489;-56
2023/03/05 03:21:04;;;;;;;23.50;10.00;;;;;;;-4.89;78.28;99871.84;107165;1260;98968;-58
2023/03/05 03:23:41;;;;;;;19.60;9.70;;;;;;;-4.88;78.24;99869.14;107148;1258;89770;-58
2023/03/05 03:26:20;;;;;;;22.30;8.70;;;;;;;-4.91;78.14;99865.35;107153;1257;95308;-58
2023/03/05 03:28:59;;;;;;;19.60;8.30;;;;;;;-4.88;78.30;99869.33;107139;1259;78212;-58
2023/03/05 03:31:39;;;;;;;19.00;8.40;;;;;;;-4.85;78.13;99867.70;107186;1259;82192;-60
2023/03/05 03:34:15;;;;;;;15.40;7.40;;;;;;;-4.83;78.48;99863.86;107148;1260;97457;-58
2023/03/05 03:36:57;;;;;;;20.30;8.60;;;;;;;-4.82;78.37;99859.45;107146;1259;88546;-58
2023/03/05 03:39:37;;;;;;;18.90;8.50;;;;;;;-4.79;78.29;99859.21;107166;1257;93653;-60
2023/03/05 03:42:12;;;;;;;17.60;8.70;;;;;;;-4.76;78.28;99856.36;107178;1258;78557;-60
2023/03/05 03:44:49;;;;;;;19.30;8.40;;;;;;;-4.77;78.39;99852.07;107178;1257;81845;-56
2023/03/05 03:47:26;;;;;;;16.00;7.60;;;;;;;-4.78;78.27;99851.42;107134;1258;98897;-56
2023/03/05 03:50:03;;;;;;;18.90;7.90;;;;;;;-4.81;78.52;99845.50;107289;1257;88838;-62
2023/03/05 03:52:40;;;;;;;22.00;7.60;;;;;;;-4.84;78.35;99842.30;107335;1258;95745;-62
2023/03/05 03:55:18;;;;;;;17.40;7.20;;;;;;;-4.84;78.24;99838.46;107393;1257;81073;-62
2023/03/05 03:57:58;;;;;;;15.10;6.90;;;;;;;-4.84;78.25;99836.04;107464;1257;81301;-62
2023/03/05 04:00:37;;;;;;;14.10;6.60;;;;;;;-4.86;78.20;99836.86;107256;1257;99017;-56
2023/03/05 04:03:21;;;;;;;18.00;7.00;;;;;;;-4.85;78.14;99835.20;107159;1259;87284;-56
2023/03/05 04:06:03;;;;;;;14.40;7.00;;;;;;;-4.78;78.62;99832.45;107164;1260;95467;-60
2023/03/05 04:08:44;;;;;;;18.10;7.40;;;;;;;-4.73;78.33;99828.42;107153;1260;79791;-60
2023/03/05 04:11:26;;;;;;;17.70;8.60;;;;;;;-4.68;78.42;99824.19;107206;1258;82861;-56
2023/03/05 04:14:01;;;;;;;20.80;8.10;;;;;;;-4.66;78.44;99824.79;107172;1259;97760;-56
2023/03/05 04:16:40;;;;;;;19.90;8.00;;;;;;;-4.64;78.43;99821.29;107143;1261;88767;-58
2023/03/05 04:19:23;;;;;;;19.10;7.20;;;;;;;-4.66;78.31;99819.52;107138;1257;94305;-62
2023/03/05 04:22:06;;;;;;;16.40;7.30;;;;;;;-4.66;78.42;99815.62;107404;1258;80047;-62
2023/03/05 04:24:40;;;;;;;17.40;6.50;;;;;;;-4.67;78.59;99808.14;107322;1259;82132;-60
2023/03/05 04:27:20;;;;;;;16.80;6.90;;;;;;;-4.64;78.59;99807.77;107151;1259;98408;-60
2023/03/05 04:30:02;;;;;;;16.70;6.40;;;;;;;-4.60;78.35;99807.98;107172;1257;87404;-58
2023/03/05 04:32:43;;;;;;;15.80;6.80;;;;;;;-4.54;78.61;99803.34;107183;1259;96806;-58
2023/03/05 04:35:21;;;;;;;20.00;7.10;;;;;;;-4.48;78.46;99802.06;107146;1259;79501;-59
2023/03/05 04:37:55;;;;;;;12.80;6.70;;;;;;;-4.43;78.67;99794.83;107182;1258;83459;-58
2023/03/05 04:40:32;;;;;;;17.50;7.20;;;;;;;-4.41;78.30;99796.25;107143;1259;98790;-58
2023/03/05 04:43:13;;;;;;;15.70;6.90;;;;;;;-4.39;78.62;99792.43;106791;1259;87168;-57
2023/03/05 04:45:51;;;;;;;18.60;7.50;;;;;;;-4.38;78.48;99792.52;107135;1257;93877;-58
2023/03/05 04:48:34;;;;;;;13.90;6.90;;;;;;;-4.39;78.60;99789.38;107145;1258;81277;-58
2023/03/05 04:51:10;;;;;;;18.20;7.30;;;;;;;-4.39;78.60;99784.70;107145;1258;83276;-58
2023/03/05 04:53:48;;;;;;;15.40;6.10;;;;;;;-4.37;78.41;99785.74;107129;1257;97230;-56
2023/03/05 04:56:23;;;;;;;14.30;6.90;;;;;;;-4.33;78.65;99781.77;107035;1259;87153;-59
2023/03/05 04:59:06;;;;;;;16.10;6.10;;;;;;;-4.30;78.67;99773.98;107190;1259;94715;-60
2023/03/05 05:01:49;;;;;;;17.10;6.90;;;;;;;-4.29;78.59;99776.55;107151;1257;79909;-59
2023/03/05 05:04:32;;;;;;;11.70;5.90;;;;;;;-4.28;78.34;99769.48;107206;1259;83660;-55
2023/03/05 05:07:09;;;;;;;17.20;6.80;;;;;;;-4.30;78.36;99767.67;107176;1257;97514;-55
2023/03/05 05:09:43;;;;;;;17.70;6.30;;;;;;;-4.32;78.52;99767.81;107175;1258;88059;-61
2023/03/05 05:12:24;;;;;;;14.90;6.90;;;;;;;-4.37;78.18;99762.59;107205;1259;92323;-60
2023/03/05 05:15:04;;;;;;;15.00;5.70;;;;;;;-4.41;78.25;99759.70;107178;1258;80036;-59
2023/03/05 05:17:46;;;;;;;15.10;6.50;;;;;;;-4.44;78.20;99758.17;107208;1259;82902;-59
2023/03/05 05:20:25;;;;;;;17.20;6.30;;;;;;;-4.43;78.09;99758.81;107162;1258;98096;-56
2023/03/05 05:23:08;;;;;;;14.70;6.10;;;;;;;-4.41;78.27;99756.66;107191;1259;89457;-56
2023/03/05 05:25:46;;;;;;;15.10;5.90;;;;;;;-4.34;78.29;99753.40;107275;1259;93867;-60
2023/03/05 05:28:22;;;;;;;16.30;6.30;;;;;;;-4.29;78.46;99749.45;107323;1259;77832;-60
2023/03/05 05:31:09;;;;;;;14.00;6.20;;;;;;;-4.23;78.59;99754.15;107376;1258;82014;-61
2023/03/05 05:33:49;;;;;;;16.70;6.40;;;;;;;-4.16;78.26;99751.34;107369;1259;97178;-61
2023/03/05 05:36:26;;;;;;;19.50;7.00;;;;;;;-4.09;78.36;99752.77;107208;1257;86043;-59
2023/03/05 05:39:09;;;;;;;14.60;6.40;;;;;;;-4.08;78.07;99753.63;107146;1259;95066;-59
2023/03/05 05:41:52;;;;;;;13.60;5.80;;;;;;;-4.09;78.20;99755.79;107112;1257;81255;-58
2023/03/05 05:44:35;;;;;;;14.40;7.10;;;;;;;-4.08;77.85;99754.61;107129;1257;79901;-57
2023/03/05 05:47:16;;;;;;;16.30;6.00;;;;;;;-4.05;78.10;99759.53;107153;1257;97081;-57
2023/03/05 05:49:53;;;;;;;14.50;5.40;;;;;;;-4.04;77.99;99759.27;107349;1257;88831;-60
2023/03/05 05:52:35;;;;;;;13.10;5.90;;;;;;;-3.97;78.30;99760.50;107189;1259;95301;-59
2023/03/05 05:55:13;;;;;;;13.00;6.00;;;;;;;-3.84;78.37;99762.34;107201;1261;79573;-59
2023/03/05 05:57:59;;;;;;;14.10;5.50;;;;;;;-3.67;78.19;99765.27;107220;1259;82979;-60
2023/03/05 06:00:36;;;;;;;11.60;5.00;;;;;;;-3.24;77.94;99763.71;107207;1261;98084;-60
2023/03/05 06:03:15;;;;;;;11.30;5.60;;;;;;;-2.30;77.89;99755.14;107204;1259;87338;-60
2023/03/05 06:05:58;;;;;;;16.70;6.50;;;;;;;-0.26;77.90;99748.24;107187;1259;95746;-55
2023/03/05 06:08:41;;;;;;;12.10;5.40;;;;;;;1.70;76.90;99740.22;107168;1257;80151;-56
2023/03/05 06:11:28;;;;;;;14.20;5.70;;;;;;;3.41;74.62;99731.55;107212;1259;82745;-58
2023/03/05 06:14:06;;;;;;;13.20;5.60;;;;;;;4.29;72.04;99726.77;107213;1259;97786;-58
2023/03/05 06:16:41;;;;;;;11.10;5.50;;;;;;;3.94;70.65;99715.37;107202;1259;89399;-56
2023/03/05 06:19:17;;;;;;;13.20;6.10;;;;;;;3.78;70.18;99711.93;107182;1261;94830;-56
2023/03/05 06:21:54;;;;;;;12.00;6.50;;;;;;;4.39;70.24;99706.55;107224;1259;77095;-58
2023/03/05 06:24:33;;;;;;;15.50;6.60;;;;;;;4.82;67.80;99701.96;107196;1258;81229;-58
2023/03/05 06:27:10;;;;;;;12.20;6.40;;;;;;;4.31;66.30;99698.65;107185;1257;99188;-57
2023/03/05 06:29:51;;;;;;;13.70;6.10;;;;;;;4.35;65.59;99696.78;107181;1259;88327;-55
2023/03/05 06:32:31;;;;;;;11.90;6.30;;;;;;;4.89;65.52;99689.71;106992;1263;95707;-56
2023/03/05 06:35:09;;;;;;;10.30;5.60;;;;;;;4.28;65.15;99683.64;107000;1259;78122;-54
2023/03/05 06:37:45;;;;;;;11.50;5.70;;;;;;;3.66;64.49;99687.72;107013;1259;82383;-56
2023/03/05 06:40:20;;;;;;;12.90;5.90;;;;;;;3.06;64.90;99691.80;107046;1259;98474;-55
2023/03/05 06:43:03;;;;;;;13.40;5.90;;;;;;;2.67;63.90;99696.44;107036;1263;88516;-57
2023/03/05 06:45:43;;;;;;;12.70;6.30;;;;;;;2.38;64.52;99690.70;106996;1259;94822;-56
2023/03/05 06:48:20;;;;;;;12.90;5.90;;;;;;;2.16;64.06;99687.71;106973;1259;79707;-56
2023/03/05 06:51:04;;;;;;;14.10;5.50;;;;;;;1.86;63.02;99674.42;106989;1263;83651;-61
2023/03/05 06:53:44;;;;;;;13.50;5.90;;;;;;;1.58;63.80;99665.32;106984;1259;99787;-59
2023/03/05 06:56:28;;;;;;;12.70;5.90;;;;;;;1.49;64.53;99666.59;106957;1259;88068;-60
2023/03/05 06:59:11;;;;;;;9.60;5.30;;;;;;;1.44;65.13;99662.87;106971;1259;95649;-58
2023/03/05 07:01:55;;;;;;;11.40;5.50;;;;;;;1.42;65.37;99652.53;106961;1263;80241;-60
2023/03/05 07:04:35;;;;;;;10.40;5.40;;;;;;;1.41;65.01;99650.86;107001;1259;81185;-56
2023/03/05 07:07:12;;;;;;;12.00;5.20;;;;;;;1.53;64.94;99652.72;107002;1258;98070;-56
2023/03/05 07:09:53;;;;;;;10.30;5.10;;;;;;;1.54;65.10;99656.49;106979;1258;88955;-55
2023/03/05 07:12:37;;;;;;;9.60;4.70;;;;;;;1.60;65.83;99666.74;106926;1258;93601;-55
2023/03/05 07:15:13;;;;;;;10.00;5.00;;;;;;;1.80;65.54;99673.77;106989;1258;78006;-58
2023/03/05 07:17:55;;;;;;;11.50;6.00;;;;;;;1.92;65.74;99670.65;106966;1259;82247;-58
2023/03/05 07:20:37;;;;;;;11.40;5.30;;;;;;;2.09;65.89;99671.21;107006;1258;99262;-57
2023/03/05 07:23:21;;;;;;;11.20;5.40;;;;;;;2.09;65.68;99672.73;106990;1258;88384;-55
2023/03/05 07:26:03;;;;;;;11.30;5.60;;;;;;;2.22;65.70;99673.17;107001;1259;95629;-58
2023/03/05 07:28:46;;;;;;;11.30;5.60;;;;;;;2.44;64.79;99666.59;107016;1259;78821;-56
2023/03/05 07:31:25;;;;;;;8.80;4.90;;;;;;;2.49;65.05;99664.16;107144;1258;81535;-62
2023/03/05 07:34:05;;;;;;;10.80;6.00;;;;;;;2.56;65.23;99667.54;107190;1257;99510;-61
2023/03/05 07:36:52;;;;;;;10.90;5.40;;;;;;;2.55;65.69;99659.08;107236;1257;88155;-61
2023/03/05 07:39:37;;;;;;;13.30;6.60;;;;;;;2.57;65.08;99659.77;107148;1257;94641;-60
2023/03/05 07:42:18;;;;;;;12.40;6.10;;;;;;;2.61;65.07;99661.48;107171;1257;78320;-60
2023/03/05 07:44:57;;;;;;;10.60;6.20;;;;;;;2.68;65.76;99659.30;107194;1259;82887;-57
2023/03/05 07:47:40;;;;;;;13.90;5.80;;;;;;;2.72;65.17;99667.29;107177;1257;98784;-57
2023/03/05 07:50:15;;;;;;;12.20;6.00;;;;;;;2.70;65.39;99667.34;107184;1258;89066;-54
2023/03/05 07:52:52;;;;;;;11.60;6.00;;;;;;;2.58;65.47;99665.30;107177;1261;95700;-56
2023/03/05 07:55:30;;;;;;;15.30;5.80;;;;;;;2.40;65.43;99663.11;107120;1259;79700;-60
2023/03/05 07:58:07;;;;;;;12.70;6.00;;;;;;;2.34;65.52;99661.98;107138;1259;81985;-61
2023/03/05 08:00:42;;;;;;;13.40;6.80;;;;;;;2.24;65.68;99658.37;107205;1261;97061;-62
2023/03/05 08:03:24;;;;;;;11.90;5.90;;;;;;;2.27;65.48;99660.00;107159;1257;86742;-61
2023/03/05 08:06:07;;;;;;;12.20;6.40;;;;;;;2.22;65.56;99659.23;107173;1259;94556;-62
2023/03/05 08:08:44;;;;;;;11.60;5.80;;;;;;;2.11;65.53;99658.63;107139;1261;78701;-62
2023/03/05 08:11:25;;;;;;;12.60;6.80;;;;;;;2.05;65.60;99661.78;107209;1258;81909;-60
2023/03/05 08:14:04;;;;;;;13.70;6.40;;;;;;;1.97;65.46;99657.92;107168;1257;97797;-59
2023/03/05 08:16:45;;;;;;;10.60;6.00;;;;;;;1.88;65.36;99658.62;107179;1258;87787;-59
2023/03/05 08:19:22;;;;;;;12.20;6.50;;;;;;;1.81;65.75;99659.20;107169;1259;95698;-61
2023/03/05 08:22:03;;;;;;;11.50;5.60;;;;;;;1.77;65.84;99658.33;107160;1260;80246;-62
2023/03/05 08:24:47;;;;;;;13.30;6.50;;;;;;;1.75;65.78;99652.12;107149;1257;82420;-57
2023/03/05 08:27:27;;;;;;;12.00;7.00;;;;;;;1.75;65.94;99655.48;107154;1257;98648;-57
2023/03/05 08:30:04;;;;;;;13.70;6.90;;;;;;;1.70;66.16;99655.09;107159;1259;88813;-62
2023/03/05 08:32:41;;;;;;;12.30;7.10;;;;;;;1.66;66.15;99657.11;107167;1261;95080;-61
2023/03/05 08:35:26;;;;;;;12.50;6.70;;;;;;;1.63;66.17;99659.02;107188;1259;80160;-56
2023/03/05 08:38:06;;;;;;;14.40;6.80;;;;;;;1.51;66.23;99650.97;107145;1257;82746;-55
2023/03/05 08:40:42;;;;;;;14.50;7.50;;;;;;;1.53;66.33;99653.62;107185;1257;99379;-62
2023/03/05 08:43:23;;;;;;;15.00;6.30;;;;;;;1.54;66.32;99651.51;107173;1257;88205;-61
2023/03/05 08:46:00;;;;;;;11.50;6.70;;;;;;;1.54;66.24;99654.79;107164;1260;93358;-61
2023/03/05 08:48:45;;;;;;;14.20;7.20;;;;;;;1.46;65.94;99655.17;107208;1259;77790;-60
2023/03/05 08:51:45;;;;;;;16.20;7.60;;;;;;;1.40;66.21;99654.56;107209;1261;81445;-62
2023/03/05 08:54:28;;;;;;;13.10;7.50;;;;;;;1.35;66.09;99654.89;107193;1257;97781;-56
2023/03/05 08:57:06;;;;;;;13.80;7.30;;;;;;;1.36;66.36;99656.16;107169;1259;87400;-57
2023/03/05 08:59:44;;;;;;;13.50;7.20;;;;;;;1.40;66.46;99651.14;107185;1262;94209;-59
2023/03/05 09:02:19;;;;;;;21.00;8.50;;;;;;;1.43;66.41;99653.32;107160;1259;79116;-59
2023/03/05 09:05:03;;;;;;;16.70;8.30;;;;;;;1.43;66.20;99650.73;107205;1258;80044;-62
2023/03/05 09:07:46;;;;;;;18.50;8.70;;;;;;;1.39;66.31;99650.06;107198;1257;100254;-62
2023/03/05 09:10:30;;;;;;;16.10;7.70;;;;;;;1.33;66.39;99650.94;107193;1258;87636;-55
2023/03/05 09:13:15;;;;;;;16.00;8.30;;;;;;;1.35;66.53;99650.25;107160;1259;94117;-49
2023/03/05 09:15:59;;;;;;;15.30;8.00;;;;;;;1.37;66.69;99646.13;107206;1261;78145;-62
2023/03/05 09:18:47;;;;;;;15.70;8.00;;;;;;;1.39;66.81;99644.34;107154;1259;82179;-62
2023/03/05 09:21:26;;;;;;;14.00;9.00;;;;;;;1.46;66.94;99644.23;107124;1259;97616;-60
2023/03/05 09:24:04;;;;;;;14.00;7.70;;;;;;;1.49;66.91;99642.63;107122;1257;89182;-61
2023/03/05 09:26:39;;;;;;;18.00;8.30;;;;;;;1.48;66.90;99644.91;107185;1261;93687;-57
2023/03/05 09:29:16;;;;;;;14.20;8.00;;;;;;;1.51;66.94;99646.91;107178;1259;79816;-55
2023/03/05 09:31:58;;;;;;;15.60;8.30;;;;;;;1.57;66.99;99645.17;107050;1259;81524;-63
2023/03/05 09:34:40;;;;;;;16.90;9.20;;;;;;;1.59;66.85;99647.89;107210;1261;97486;-62
2023/03/05 09:37:21;;;;;;;12.90;8.50;;;;;;;1.58;66.56;99643.38;107221;1257;87614;-60
2023/03/05 09:40:02;;;;;;;13.10;7.30;;;;;;;1.57;66.47;99645.34;107195;1261;94265;-62
2023/03/05 09:47:27;;;;;;;12.30;7.30;;;;;;;1.68;66.70;99644.29;108964;1253;80204;-58
2023/03/05 09:50:33;;;;;;;18.00;7.50;;;;;;;1.70;66.72;99644.48;108930;1257;97028;-60
2023/03/05 09:53:18;;;;;;;13.20;6.90;;;;;;;1.73;66.59;99641.98;108930;1257;87424;-61
2023/03/05 09:55:55;;;;;;;15.20;7.80;;;;;;;1.77;66.70;99639.48;108940;1257;94712;-55
2023/03/05 09:58:38;;;;;;;16.10;8.70;;;;;;;1.83;66.70;99638.91;108868;1258;78132;-57
2023/03/05 10:01:17;;;;;;;17.60;8.40;;;;;;;1.84;66.27;99636.71;108922;1258;82686;-57
2023/03/05 10:04:01;;;;;;;16.70;8.90;;;;;;;1.87;66.55;99635.65;108937;1257;98425;-56
2023/03/05 10:06:41;;;;;;;14.30;8.00;;;;;;;1.92;66.90;99635.72;108941;1257;89720;-56
2023/03/05 10:09:30;;;;;;;15.90;8.30;;;;;;;1.97;66.86;99635.40;108942;1257;93819;-61
2023/03/05 10:12:08;;;;;;;16.10;9.20;;;;;;;2.07;67.00;99630.63;108908;1261;80386;-61
2023/03/05 10:14:43;;;;;;;15.20;9.00;;;;;;;2.11;67.00;99633.06;108932;1257;83244;-62
2023/03/05 10:17:46;;;;;;;15.30;7.60;;;;;;;2.13;66.87;99632.34;108893;1257;98817;-57
2023/03/05 10:20:52;;;;;;;14.20;8.00;;;;;;;2.19;66.76;99630.27;108942;1257;88489;-58
2023/03/05 10:24:03;;;;;;;15.00;8.50;;;;;;;2.18;66.86;99625.92;108872;1258;95390;-57
2023/03/05 10:27:02;;;;;;;14.80;8.80;;;;;;;2.23;66.81;99623.14;108941;1257;75988;-56
2023/03/05 10:30:03;;;;;;;18.60;9.40;;;;;;;2.24;66.73;99623.40;108928;1256;82598;-58
2023/03/05 10:32:51;;;;;;;17.80;9.00;;;;;;;2.19;66.65;99620.67;108927;1258;97845;-57
2023/03/05 10:35:46;;;;;;;16.40;9.90;;;;;;;2.22;66.92;99617.55;108948;1257;87634;-58
2023/03/05 10:38:44;;;;;;;;;;;;;;;2.23;67.12;99614.38;108982;1258;95338;-62
2023/03/05 10:41:27;;;;;;;18.40;8.80;;;;;;;2.25;67.17;99617.35;108890;1257;79148;-59
2023/03/05 10:44:09;;;;;;;16.90;8.80;;;;;;;2.27;67.04;99611.82;108908;1258;82249;-61
2023/03/05 10:46:44;;;;;;;16.70;8.60;;;;;;;2.25;66.71;99609.15;108934;1257;97001;-57
2023/03/05 10:49:25;;;;;;;18.40;8.80;;;;;;;2.12;66.74;99607.59;108966;1257;86628;-58
2023/03/05 10:52:08;;;;;;;16.50;8.80;;;;;;;2.10;66.75;99604.19;108960;1257;93744;-60
2023/03/05 10:54:46;;;;;;;18.10;9.40;;;;;;;2.11;66.70;99599.09;108903;1257;79595;-61
2023/03/05 10:57:26;;;;;;;16.00;8.90;;;;;;;2.02;66.95;99596.51;108951;1257;80726;-57
2023/03/05 11:00:07;;;;;;;11.40;7.30;;;;;;;1.95;67.02;99594.73;108918;1257;97457;-56
2023/03/05 11:02:59;;;;;;;11.80;6.60;;;;;;;1.95;66.70;99592.81;108918;1258;87711;-58
2023/03/05 11:05:58;;;;;;;10.80;5.20;;;;;;;1.91;66.50;99591.45;108868;1260;93204;-58
2023/03/05 11:08:35;;;;;;;8.70;4.30;;;;;;;1.88;66.79;99589.75;108844;1261;79625;-62
2023/03/05 11:11:19;;;;;;;10.80;4.80;;;;;;;1.94;66.95;99587.08;108896;1258;82654;-62
2023/03/05 11:14:00;;;;;;;7.30;3.50;;;;;;;1.92;67.05;99584.38;108885;1259;99029;-61
2023/03/05 11:16:46;;;;;;;7.80;3.80;;;;;;;1.87;66.75;99588.64;108873;1258;87962;-61
2023/03/05 11:19:28;;;;;;;7.90;3.40;;;;;;;1.83;66.80;99583.38;108850;1263;94906;-63
2023/03/05 11:22:19;;;;;;;7.60;2.90;;;;;;;1.88;66.88;99583.70;108859;1258;78723;-55
2023/03/05 11:25:20;;;;;;;12.40;5.00;;;;;;;1.95;67.07;99577.01;108884;1260;82569;-56
2023/03/05 11:27:58;;;;;;;9.70;3.40;;;;;;;1.97;66.89;99575.23;108847;1259;96989;-55
2023/03/05 11:30:35;;;;;;;5.30;2.80;;;;;;;1.95;67.04;99571.66;108886;1259;88057;-55
2023/03/05 11:33:19;;;;;;;7.20;3.80;;;;;;;1.91;67.44;99571.91;108859;1260;94973;-59
2023/03/05 11:36:12;;;;;;;8.00;3.50;;;;;;;1.93;67.49;99572.95;108832;1260;78283;-60
2023/03/05 11:38:54;;;;;;;7.60;4.00;;;;;;;1.92;67.79;99565.09;108922;1258;81845;-61
2023/03/05 11:41:37;;;;;;;7.80;3.60;;;;;;;1.92;67.91;99563.77;108869;1259;97936;-61
2023/03/05 11:44:17;;;;;;;6.10;3.60;;;;;;;1.85;68.33;99555.10;108894;1258;88374;-56
2023/03/05 11:46:59;;;;;;;7.20;3.80;;;;;;;1.93;68.41;99556.43;108891;1259;96036;-55
2023/03/05 11:49:40;;;;;;;9.00;4.00;;;;;;;1.98;68.52;99551.96;108865;1258;79655;-55
2023/03/05 11:52:20;;;;;;;10.50;5.60;;;;;;;1.96;68.54;99550.05;108848;1259;81866;-57
2023/03/05 11:55:07;;;;;;;11.90;5.90;;;;;;;1.92;68.89;99547.09;108845;1263;96197;-57
2023/03/05 11:57:50;;;;;;;12.90;5.60;;;;;;;1.91;69.26;99542.91;108878;1258;88183;-57
2023/03/05 12:00:29;;;;;;;14.60;8.20;;;;;;;1.89;69.48;99546.69;108828;1260;93948;-57
2023/03/05 12:03:10;;;;;;;17.00;7.90;;;;;;;1.88;69.52;99539.23;108845;1260;80021;-60
2023/03/05 12:05:48;;;;;;;14.30;7.90;;;;;;;1.79;69.69;99539.33;108899;1259;82890;-60
2023/03/05 12:08:29;;;;;;;14.30;7.60;;;;;;;1.66;69.89;99535.89;108876;1259;99249;-60
2023/03/05 12:11:12;;;;;;;14.20;8.10;;;;;;;1.61;70.23;99531.04;108889;1259;88580;-57
2023/03/05 12:13:50;;;;;;;13.90;7.80;;;;;;;1.65;70.38;99531.89;108862;1260;93772;-56
2023/03/05 12:16:36;;;;;;;12.60;7.20;;;;;;;1.57;70.62;99531.52;108853;1260;80433;-57
2023/03/05 12:19:31;;;;;;;10.90;5.80;;;;;;;1.48;70.84;99531.58;108898;1259;81878;-61
2023/03/05 12:22:14;;;;;;;12.30;6.10;;;;;;;1.44;71.07;99523.73;108905;1259;98424;-56
2023/03/05 12:24:50;;;;;;;11.00;4.60;;;;;;;1.42;71.31;99521.88;108883;1259;87072;-61
2023/03/05 12:27:38;;;;;;;10.00;4.20;;;;;;;1.39;71.59;99519.98;108886;1258;95053;-61
2023/03/05 12:30:44;;;;;;;7.60;4.20;;;;;;;1.45;71.80;99516.52;108865;1259;80779;-61
2023/03/05 12:33:38;;;;;;;10.60;5.10;;;;;;;1.56;72.07;99515.25;108833;1259;82746;-62